King And Queen Court House, Virginia
Current Conditions -  °F | °C
As of 3:15 AM on Monday 26 Jan 2015 (Local Time) from KFYJ Reporting Station
Overcast Overcast  
Wind Chill: 37°   Ceiling: 7500
Heat Index: 40°   Visibility: 10mi
Dew Point: 34°   Wind: 5mph
Humidity: 78%   Direction: 80°E
Pressure: 29.8"   Gusts: NA
Location:  37.67°N, 76.88°W
Report Text: KFYJ 260815Z AUTO 08004KT 10SM BKN075 OVC120 05/01 A2980 RMK AO2 T00470012
Loading
Personal Weather Stations






























Interactive Weather Map New forecast layout! Learn more

10-Day Weather Forecast

Advertisements
Track Severe Weather on mobile